LFEW weather

Saulieu Liernais Airfield
Bourgogne-Franche-Comté, France

Public forecast

Using degrees Celsius for public forecast. Weather courtesy of forecast.io.

Closest aviation weather report (METAR) to Saulieu Liernais Airfield

Closest report is Dijon-Bourgogne Airport, 33.6 nm (62.3 km) E. Retrieved 2019/11/18 12:30 UTC (11 minutes ago):

LFSD 181230Z AUTO 25008KT 9999 OVC032 07/02 Q1013

Closest aviation forecast (TAF) to Saulieu Liernais Airfield

Forecast is more than 12 hours old.

Closest forecast is Dijon-Bourgogne Airport, 33.6 nm (62.3 km) E. Retrieved 2015/06/01 00:11 UTC (4 years ago):

TAF LFSD 010600Z 0100/0124 CNL